Portada
METAR-TAF:

METAR-TAF

Aeropuertos :

Fayetteville, Tennessee, Estados Unidos

latitud: 35-03-35N, longitud: 086-33-50W, altitud: 300 m

Observación

El informe se hizo hace 29 minutos, a las 19:35 UTC
Viento 5 kt del oeste-noroeste
Temperatura 12°C
Humedad 58%
Presión 1014 hPa
Visibilidad: 16.1 km
Cielo nuboso a una altura de 4200 ft

METAR: KFYM 271935Z AUTO 30005KT 10SM BKN042 12/04 A2993 RMK A01

Hora: 14:04 (20:04 UTC)


TAF: falta

Observaciones y pronósticos meteorológicos de más de 4000 aeropuertos (mensajes METAR y TAF).

Los puntos amarillos y rojos representan las estaciones disponibles.

Ponga el ratón en el punto deseado para ver el nombre de la estación.

Haga clic para ver las observaciones y los pronósticos meteorológicos.

Para cambiar el mapa : haga clic en los botones verdes con una cruz de color negro para hacer un zoom, en el botón verde con un guión para alejar o en las flechas verdes para mapas adyacentes.


METAR-TAF: